Time;durP1;ratioP1;P1;durP2;ratioP2;P2;SDS_P1;SDS_P2;PMS_P1;PMS_P2;Temp;Humidity;BMP_temperature;BMP_pressure;BME280_temperature;BME280_humidity;BME280_pressure;Samples;Min_cycle;Max_cycle;Signal;HPM_P1;HPM_P2
2022/04/16 00:01:04;;;;;;;11.18;3.42;;;;;;;;;;4938846;29;20031;-71
2022/04/16 00:03:31;;;;;;;9.98;2.30;;;;;;;;;;4951330;29;20051;-72
2022/04/16 00:05:58;;;;;;;10.77;3.25;;;;;;;;;;4938458;29;20031;-72
2022/04/16 00:08:25;;;;;;;7.45;2.22;;;;;;;;;;4940525;29;20032;-72
2022/04/16 00:10:52;;;;;;;8.52;2.72;;;;;;;;;;4940501;29;20039;-72
2022/04/16 00:13:19;;;;;;;6.30;2.55;;;;;;;;;;4940296;29;20031;-72
2022/04/16 00:15:55;;;;;;;9.25;2.42;;;;;;;;;;4936264;29;20043;-72
2022/04/16 00:18:22;;;;;;;9.10;2.70;;;;;;;;;;4935569;29;20135;-72
2022/04/16 00:20:49;;;;;;;10.20;2.70;;;;;;;;;;4939258;29;20035;-72
2022/04/16 00:23:19;;;;;;;12.25;2.88;;;;;;;;;;4944288;28;20035;-72
2022/04/16 00:25:49;;;;;;;9.95;2.75;;;;;;;;;;4968298;28;20029;-72
2022/04/16 00:28:16;;;;;;;5.05;2.53;;;;;;;;;;4968154;28;20036;-71
2022/04/16 00:30:42;;;;;;;5.68;2.67;;;;;;;;;;4972393;28;20035;-72
2022/04/16 00:33:10;;;;;;;7.97;2.70;;;;;;;;;;4969078;28;20023;-72
2022/04/16 00:35:42;;;;;;;8.95;2.58;;;;;;;;;;4968311;28;20047;-72
2022/04/16 00:38:08;;;;;;;9.25;2.90;;;;;;;;;;4968099;28;20395;-72
2022/04/16 00:40:35;;;;;;;7.65;2.88;;;;;;;;;;4968175;28;20512;-72
2022/04/16 00:43:02;;;;;;;7.50;2.75;;;;;;;;;;4970033;28;20021;-71
2022/04/16 00:45:30;;;;;;;5.55;2.42;;;;;;;;;;4970666;28;20053;-72
2022/04/16 00:47:57;;;;;;;8.73;3.40;;;;;;;;;;4968596;28;20041;-72
2022/04/16 00:50:23;;;;;;;7.68;2.78;;;;;;;;;;4968072;28;20025;-72
2022/04/16 00:52:49;;;;;;;6.93;2.80;;;;;;;;;;4968313;28;20039;-72
2022/04/16 00:55:16;;;;;;;10.95;2.78;;;;;;;;;;4967841;28;20032;-72
2022/04/16 00:57:42;;;;;;;6.53;2.70;;;;;;;;;;4972807;28;20019;-72
2022/04/16 01:00:09;;;;;;;6.97;2.60;;;;;;;;;;4968510;28;20022;-72
2022/04/16 01:02:36;;;;;;;9.10;2.67;;;;;;;;;;4968285;28;20023;-71
2022/04/16 01:05:04;;;;;;;10.80;2.90;;;;;;;;;;4967939;28;20037;-72
2022/04/16 01:07:30;;;;;;;4.93;2.40;;;;;;;;;;4967837;28;20031;-71
2022/04/16 01:09:57;;;;;;;9.52;2.35;;;;;;;;;;4970486;28;20045;-72
2022/04/16 01:12:23;;;;;;;8.20;2.67;;;;;;;;;;4970342;28;20019;-72
2022/04/16 01:14:50;;;;;;;6.40;2.50;;;;;;;;;;4967763;28;20043;-72
2022/04/16 01:17:17;;;;;;;8.00;2.83;;;;;;;;;;4967884;28;20027;-72
2022/04/16 01:19:44;;;;;;;5.07;2.28;;;;;;;;;;4967905;28;20031;-72
2022/04/16 01:22:11;;;;;;;7.38;2.72;;;;;;;;;;4968298;28;20567;-72
2022/04/16 01:24:38;;;;;;;12.52;2.55;;;;;;;;;;4971955;28;20411;-72
2022/04/16 01:27:05;;;;;;;9.52;2.92;;;;;;;;;;4968371;28;20407;-72
2022/04/16 01:29:31;;;;;;;14.30;2.92;;;;;;;;;;4967275;28;20065;-72
2022/04/16 01:31:59;;;;;;;5.93;2.63;;;;;;;;;;4971236;28;20511;-72
2022/04/16 01:34:25;;;;;;;5.22;2.65;;;;;;;;;;4971182;28;20044;-71
2022/04/16 01:36:52;;;;;;;8.15;2.65;;;;;;;;;;4974459;28;20027;-72
2022/04/16 01:39:19;;;;;;;5.80;2.35;;;;;;;;;;4972642;28;20045;-72
2022/04/16 01:41:46;;;;;;;9.27;2.53;;;;;;;;;;4971706;28;20026;-72
2022/04/16 01:44:13;;;;;;;9.05;2.22;;;;;;;;;;4970675;28;20037;-72
2022/04/16 01:46:39;;;;;;;5.60;1.90;;;;;;;;;;4970999;28;20040;-72
2022/04/16 01:49:06;;;;;;;3.72;2.00;;;;;;;;;;4972240;28;20075;-72
2022/04/16 01:51:33;;;;;;;5.80;2.20;;;;;;;;;;4974333;28;20423;-72
2022/04/16 01:53:59;;;;;;;5.55;2.40;;;;;;;;;;4971708;28;20025;-72
2022/04/16 01:56:25;;;;;;;4.05;2.20;;;;;;;;;;4970461;28;20451;-71
2022/04/16 01:58:52;;;;;;;3.38;1.77;;;;;;;;;;4971009;28;20025;-72
2022/04/16 02:01:19;;;;;;;7.88;1.90;;;;;;;;;;4970736;28;20505;-71
2022/04/16 02:03:46;;;;;;;9.15;2.80;;;;;;;;;;4974702;28;20029;-71
2022/04/16 02:06:12;;;;;;;5.03;1.95;;;;;;;;;;4971725;28;20035;-72
2022/04/16 02:08:39;;;;;;;7.72;2.70;;;;;;;;;;4971109;28;20031;-72
2022/04/16 02:11:05;;;;;;;7.10;2.40;;;;;;;;;;4970309;28;20027;-72
2022/04/16 02:13:31;;;;;;;5.63;2.17;;;;;;;;;;4956531;28;20027;-72
2022/04/16 02:15:58;;;;;;;6.57;2.58;;;;;;;;;;4972531;28;20035;-72
2022/04/16 02:18:24;;;;;;;7.43;2.35;;;;;;;;;;4972916;28;20026;-71
2022/04/16 02:20:51;;;;;;;5.30;2.28;;;;;;;;;;4970850;28;20122;-71
2022/04/16 02:23:17;;;;;;;7.90;2.88;;;;;;;;;;4970335;28;20033;-72
2022/04/16 02:25:43;;;;;;;8.38;2.60;;;;;;;;;;4970158;28;20027;-72
2022/04/16 02:28:10;;;;;;;6.55;2.47;;;;;;;;;;4970721;28;20500;-72
2022/04/16 02:30:37;;;;;;;6.38;2.05;;;;;;;;;;4973535;28;20019;-72
2022/04/16 02:33:06;;;;;;;7.55;2.50;;;;;;;;;;4970786;28;20504;-72
2022/04/16 02:35:33;;;;;;;4.65;2.25;;;;;;;;;;4969996;28;20038;-71
2022/04/16 02:37:59;;;;;;;5.93;2.55;;;;;;;;;;4970039;28;20403;-71
2022/04/16 02:40:25;;;;;;;8.00;2.45;;;;;;;;;;4955017;28;20502;-72
2022/04/16 02:42:52;;;;;;;4.80;2.13;;;;;;;;;;4972290;28;20033;-72
2022/04/16 02:48:04;;;;;;;7.82;2.22;;;;;;;;;;4974517;28;20026;-72
2022/04/16 02:50:31;;;;;;;4.82;2.30;;;;;;;;;;4969712;28;20496;-71
2022/04/16 02:52:58;;;;;;;4.78;2.55;;;;;;;;;;4969767;28;20031;-72
2022/04/16 02:55:25;;;;;;;5.22;2.58;;;;;;;;;;4969312;28;20041;-72
2022/04/16 02:57:51;;;;;;;4.38;2.17;;;;;;;;;;4972638;28;20029;-72
2022/04/16 03:00:20;;;;;;;3.75;2.15;;;;;;;;;;4971511;28;20046;-72
2022/04/16 03:02:47;;;;;;;6.15;2.65;;;;;;;;;;4969978;28;20025;-71
2022/04/16 03:05:13;;;;;;;10.52;3.17;;;;;;;;;;4969702;28;20039;-72
2022/04/16 03:07:40;;;;;;;5.18;2.50;;;;;;;;;;4969650;28;20027;-72
2022/04/16 03:10:08;;;;;;;5.03;2.53;;;;;;;;;;4970090;28;20444;-71
2022/04/16 03:12:48;;;;;;;7.05;2.80;;;;;;;;;;4973360;28;20391;-71
2022/04/16 03:18:01;;;;;;;4.22;2.28;;;;;;;;;;4968788;28;20484;-72
2022/04/16 03:20:29;;;;;;;5.80;2.47;;;;;;;;;;4972964;28;20056;-71
2022/04/16 03:22:59;;;;;;;7.32;2.42;;;;;;;;;;4969305;28;20026;-71
2022/04/16 03:25:27;;;;;;;5.82;2.58;;;;;;;;;;4968754;28;20065;-72
2022/04/16 03:27:53;;;;;;;7.75;2.70;;;;;;;;;;4971778;28;20029;-71
2022/04/16 03:30:20;;;;;;;5.50;2.63;;;;;;;;;;4971082;28;20447;-72
2022/04/16 03:32:47;;;;;;;5.57;2.30;;;;;;;;;;4969692;28;20037;-71
2022/04/16 03:35:14;;;;;;;8.48;2.83;;;;;;;;;;4968813;28;20035;-71
2022/04/16 03:37:40;;;;;;;6.10;2.63;;;;;;;;;;4968883;28;20037;-71
2022/04/16 03:40:07;;;;;;;4.35;2.63;;;;;;;;;;4969516;28;20024;-71
2022/04/16 03:42:33;;;;;;;9.90;2.42;;;;;;;;;;4972102;28;20027;-71
2022/04/16 03:45:00;;;;;;;11.88;2.90;;;;;;;;;;4969419;28;20037;-71
2022/04/16 03:47:30;;;;;;;10.02;2.55;;;;;;;;;;4969105;28;20027;-72
2022/04/16 03:49:56;;;;;;;5.07;2.53;;;;;;;;;;4968890;28;20037;-71
2022/04/16 03:52:23;;;;;;;5.85;2.58;;;;;;;;;;4968445;28;20027;-72
2022/04/16 04:00:19;;;;;;;8.90;2.50;;;;;;;;;;4955255;28;20082;-71
2022/04/16 04:02:46;;;;;;;5.88;2.40;;;;;;;;;;4969056;28;20027;-71
2022/04/16 04:05:12;;;;;;;7.85;2.28;;;;;;;;;;4968382;28;20030;-72
2022/04/16 04:07:38;;;;;;;5.57;2.33;;;;;;;;;;4968275;28;20033;-71
2022/04/16 04:10:05;;;;;;;10.50;2.50;;;;;;;;;;4952346;28;20134;-71
2022/04/16 04:12:31;;;;;;;5.72;2.65;;;;;;;;;;4971831;28;20070;-72
2022/04/16 04:14:59;;;;;;;4.88;2.72;;;;;;;;;;4968699;28;20114;-71
2022/04/16 04:17:25;;;;;;;4.22;2.20;;;;;;;;;;4968307;28;20080;-72
2022/04/16 04:19:51;;;;;;;6.32;2.90;;;;;;;;;;4968435;28;20031;-71
2022/04/16 04:22:18;;;;;;;6.53;2.42;;;;;;;;;;4968270;28;20038;-71
2022/04/16 04:24:45;;;;;;;4.30;2.50;;;;;;;;;;4972217;28;20391;-71
2022/04/16 04:27:12;;;;;;;4.28;2.60;;;;;;;;;;4969369;28;20030;-72
2022/04/16 04:29:38;;;;;;;6.45;2.78;;;;;;;;;;4968569;28;20043;-72
2022/04/16 04:32:05;;;;;;;4.25;2.50;;;;;;;;;;4968180;28;20042;-72
2022/04/16 04:34:32;;;;;;;4.43;2.45;;;;;;;;;;4968184;28;20035;-71
2022/04/16 04:36:58;;;;;;;4.90;2.50;;;;;;;;;;4969999;28;20031;-71
2022/04/16 04:39:25;;;;;;;6.78;2.50;;;;;;;;;;4971314;28;20052;-71
2022/04/16 04:41:51;;;;;;;9.82;2.40;;;;;;;;;;4968764;28;20037;-71
2022/04/16 04:44:17;;;;;;;5.50;2.55;;;;;;;;;;4968212;28;20397;-71
2022/04/16 04:46:44;;;;;;;3.70;2.22;;;;;;;;;;4968326;28;20022;-72
2022/04/16 04:49:13;;;;;;;6.72;2.67;;;;;;;;;;4968811;28;20503;-71
2022/04/16 04:51:40;;;;;;;3.92;2.63;;;;;;;;;;4956856;28;20025;-71
2022/04/16 04:54:07;;;;;;;5.50;2.70;;;;;;;;;;4955447;28;20053;-71
2022/04/16 04:56:37;;;;;;;4.78;2.40;;;;;;;;;;4968220;28;20059;-71
2022/04/16 04:59:03;;;;;;;4.38;2.35;;;;;;;;;;4968042;28;20023;-71
2022/04/16 05:01:30;;;;;;;5.20;2.47;;;;;;;;;;4967897;28;20413;-71
2022/04/16 05:03:56;;;;;;;5.25;2.47;;;;;;;;;;4970175;28;20023;-71
2022/04/16 05:06:23;;;;;;;5.78;2.63;;;;;;;;;;4972852;28;20038;-72
2022/04/16 05:08:49;;;;;;;5.93;2.72;;;;;;;;;;4972463;28;20027;-71
2022/04/16 05:11:16;;;;;;;5.15;2.67;;;;;;;;;;4971910;28;20030;-71
2022/04/16 05:13:42;;;;;;;6.53;2.88;;;;;;;;;;4971669;28;20508;-71
2022/04/16 05:16:08;;;;;;;5.13;2.55;;;;;;;;;;4972166;28;20049;-71
2022/04/16 05:18:35;;;;;;;4.78;2.50;;;;;;;;;;4975243;28;20106;-72
2022/04/16 05:21:01;;;;;;;8.70;2.90;;;;;;;;;;4971809;28;20029;-71
2022/04/16 05:23:27;;;;;;;6.38;3.00;;;;;;;;;;4971369;28;20023;-72
2022/04/16 05:25:54;;;;;;;7.80;2.67;;;;;;;;;;4971334;28;20056;-72
2022/04/16 05:28:20;;;;;;;6.82;2.90;;;;;;;;;;4971107;28;20044;-71
2022/04/16 05:30:54;;;;;;;7.50;2.75;;;;;;;;;;4975087;28;20026;-71
2022/04/16 05:36:06;;;;;;;5.35;3.03;;;;;;;;;;4975441;28;20399;-71
2022/04/16 05:38:33;;;;;;;5.75;2.60;;;;;;;;;;4971028;28;20033;-71
2022/04/16 05:40:59;;;;;;;5.82;3.13;;;;;;;;;;4971128;28;20033;-71
2022/04/16 05:43:25;;;;;;;8.05;3.00;;;;;;;;;;4971035;28;20033;-71
2022/04/16 05:45:52;;;;;;;8.60;3.08;;;;;;;;;;4974193;28;20018;-71
2022/04/16 05:48:19;;;;;;;4.10;2.55;;;;;;;;;;4972434;28;20031;-70
2022/04/16 05:50:45;;;;;;;4.60;2.85;;;;;;;;;;4971619;28;20400;-71
2022/04/16 05:53:13;;;;;;;8.73;3.60;;;;;;;;;;4970847;28;20451;-71
2022/04/16 05:55:43;;;;;;;7.22;2.97;;;;;;;;;;4970772;28;20041;-71
2022/04/16 05:58:09;;;;;;;5.90;3.33;;;;;;;;;;4971733;28;20015;-71
2022/04/16 06:00:37;;;;;;;6.55;3.17;;;;;;;;;;4974664;28;20496;-71
2022/04/16 06:03:04;;;;;;;6.15;3.15;;;;;;;;;;4971063;28;20015;-72
2022/04/16 06:05:31;;;;;;;7.28;3.38;;;;;;;;;;4970746;28;20033;-71
2022/04/16 06:07:58;;;;;;;4.32;2.83;;;;;;;;;;4957448;28;20518;-72
2022/04/16 06:10:25;;;;;;;6.35;3.20;;;;;;;;;;4970546;28;20415;-72
2022/04/16 06:12:51;;;;;;;6.80;2.97;;;;;;;;;;4973623;28;20025;-71
2022/04/16 06:15:17;;;;;;;5.50;3.10;;;;;;;;;;4971937;28;20057;-71
2022/04/16 06:17:43;;;;;;;6.03;2.60;;;;;;;;;;4972813;28;20031;-72
2022/04/16 06:20:10;;;;;;;8.35;3.00;;;;;;;;;;4970311;28;20407;-72
2022/04/16 06:22:37;;;;;;;6.97;2.90;;;;;;;;;;4970314;28;20411;-71
2022/04/16 06:25:04;;;;;;;6.38;2.80;;;;;;;;;;4971821;28;20020;-71
2022/04/16 06:27:30;;;;;;;5.60;3.00;;;;;;;;;;4973424;28;20029;-72
2022/04/16 06:29:56;;;;;;;4.38;3.10;;;;;;;;;;4958961;28;20077;-72
2022/04/16 06:32:23;;;;;;;9.30;3.00;;;;;;;;;;4969900;28;20027;-72
2022/04/16 06:34:49;;;;;;;4.30;2.97;;;;;;;;;;4969969;28;20495;-72
2022/04/16 06:37:16;;;;;;;7.88;2.60;;;;;;;;;;4970291;28;20031;-72
2022/04/16 06:39:42;;;;;;;7.15;2.95;;;;;;;;;;4974720;28;20030;-72
2022/04/16 06:42:08;;;;;;;8.75;3.20;;;;;;;;;;4971108;28;20041;-72
2022/04/16 06:44:34;;;;;;;6.68;3.53;;;;;;;;;;4969784;28;20524;-72
2022/04/16 06:47:01;;;;;;;11.38;5.05;;;;;;;;;;4970068;28;20045;-72
2022/04/16 06:49:27;;;;;;;12.55;5.07;;;;;;;;;;4969822;28;20019;-72
2022/04/16 06:51:53;;;;;;;12.55;5.28;;;;;;;;;;4972575;28;20033;-72
2022/04/16 06:54:20;;;;;;;19.40;5.45;;;;;;;;;;4971769;28;20039;-72
2022/04/16 06:56:46;;;;;;;10.43;4.93;;;;;;;;;;4970063;28;20109;-72
2022/04/16 06:59:12;;;;;;;12.93;4.90;;;;;;;;;;4969609;28;20300;-72
2022/04/16 07:01:39;;;;;;;8.90;4.05;;;;;;;;;;4969332;28;20404;-72
2022/04/16 07:04:05;;;;;;;10.63;4.05;;;;;;;;;;4970751;28;20028;-72
2022/04/16 07:06:31;;;;;;;10.13;3.80;;;;;;;;;;4973141;28;20034;-73
2022/04/16 07:08:58;;;;;;;7.00;3.60;;;;;;;;;;4969971;28;20041;-73
2022/04/16 07:11:24;;;;;;;7.18;3.05;;;;;;;;;;4956335;28;20030;-73
2022/04/16 07:13:50;;;;;;;5.68;2.95;;;;;;;;;;4969331;28;20511;-73
2022/04/16 07:16:17;;;;;;;5.10;2.42;;;;;;;;;;4968935;28;20027;-73
2022/04/16 07:18:43;;;;;;;5.13;2.60;;;;;;;;;;4973848;28;20093;-73
2022/04/16 07:21:09;;;;;;;3.45;2.30;;;;;;;;;;4970148;28;20030;-73
2022/04/16 07:23:36;;;;;;;7.75;2.85;;;;;;;;;;4969213;28;20027;-73
2022/04/16 07:26:02;;;;;;;5.47;2.30;;;;;;;;;;4969332;28;20019;-73
2022/04/16 07:28:29;;;;;;;4.95;2.58;;;;;;;;;;4968611;28;20049;-73
2022/04/16 07:30:55;;;;;;;6.40;2.50;;;;;;;;;;4971494;28;20031;-73
2022/04/16 07:33:21;;;;;;;8.18;2.72;;;;;;;;;;4971065;28;20427;-74
2022/04/16 07:35:48;;;;;;;6.20;3.20;;;;;;;;;;4969395;28;20503;-73
2022/04/16 07:38:14;;;;;;;6.15;2.85;;;;;;;;;;4969245;28;20019;-74
2022/04/16 07:40:40;;;;;;;11.35;2.75;;;;;;;;;;4968837;28;20035;-74
2022/04/16 07:43:07;;;;;;;6.90;2.67;;;;;;;;;;4970120;28;20397;-73
2022/04/16 07:45:34;;;;;;;7.00;2.83;;;;;;;;;;4971990;28;20577;-74
2022/04/16 07:48:00;;;;;;;7.80;2.80;;;;;;;;;;4969170;28;20027;-74
2022/04/16 07:50:26;;;;;;;4.57;2.50;;;;;;;;;;4968806;28;20041;-74
2022/04/16 07:52:53;;;;;;;7.57;2.72;;;;;;;;;;4971710;28;20073;-74
2022/04/16 07:55:19;;;;;;;5.15;2.58;;;;;;;;;;4968678;28;20035;-74
2022/04/16 07:57:47;;;;;;;5.25;2.42;;;;;;;;;;4972557;28;20026;-74
2022/04/16 08:00:13;;;;;;;6.05;2.33;;;;;;;;;;4969621;28;20030;-74
2022/04/16 08:02:39;;;;;;;4.40;2.20;;;;;;;;;;4968536;28;20023;-74
2022/04/16 08:05:06;;;;;;;2.15;1.92;;;;;;;;;;4968800;28;20069;-74
2022/04/16 08:07:33;;;;;;;4.45;2.35;;;;;;;;;;4968693;28;20026;-75
2022/04/16 08:09:59;;;;;;;4.53;2.20;;;;;;;;;;4970876;28;20081;-75
2022/04/16 08:12:26;;;;;;;3.60;1.92;;;;;;;;;;4971205;28;20041;-74
2022/04/16 08:14:53;;;;;;;7.32;2.10;;;;;;;;;;4968578;28;20038;-75
2022/04/16 08:17:19;;;;;;;4.13;2.08;;;;;;;;;;4955340;28;20029;-75
2022/04/16 08:19:46;;;;;;;4.15;1.98;;;;;;;;;;4968457;28;20052;-75
2022/04/16 08:22:17;;;;;;;5.75;2.10;;;;;;;;;;4968761;28;20384;-75
2022/04/16 08:27:32;;;;;;;4.28;1.77;;;;;;;;;;4971703;28;20031;-75
2022/04/16 08:29:59;;;;;;;5.00;1.98;;;;;;;;;;4968443;28;20408;-74
2022/04/16 08:32:25;;;;;;;2.75;1.88;;;;;;;;;;4968596;28;20035;-75
2022/04/16 08:34:51;;;;;;;4.47;2.10;;;;;;;;;;4968073;28;20327;-75
2022/04/16 08:37:18;;;;;;;3.65;1.83;;;;;;;;;;4968164;28;20400;-75
2022/04/16 08:39:45;;;;;;;6.20;1.73;;;;;;;;;;4972709;28;20015;-75
2022/04/16 08:42:13;;;;;;;3.22;1.77;;;;;;;;;;4973397;28;20484;-75
2022/04/16 08:44:40;;;;;;;2.05;1.52;;;;;;;;;;4976361;28;20027;-75
2022/04/16 08:47:06;;;;;;;4.18;1.90;;;;;;;;;;4972178;28;20080;-75
2022/04/16 08:49:33;;;;;;;6.20;1.85;;;;;;;;;;4958357;28;20400;-76
2022/04/16 08:52:01;;;;;;;3.05;1.77;;;;;;;;;;4974073;28;20034;-76
2022/04/16 08:54:28;;;;;;;3.78;1.45;;;;;;;;;;4974663;28;20026;-73
2022/04/16 08:56:54;;;;;;;3.25;1.30;;;;;;;;;;4972368;28;20038;-73
2022/04/16 08:59:20;;;;;;;4.80;1.70;;;;;;;;;;4971790;28;20029;-73
2022/04/16 09:01:47;;;;;;;5.05;1.52;;;;;;;;;;4972132;28;20039;-73
2022/04/16 09:04:23;;;;;;;2.60;1.45;;;;;;;;;;4971919;28;20022;-74
2022/04/16 09:06:56;;;;;;;7.45;1.60;;;;;;;;;;4961114;28;20033;-74
2022/04/16 09:09:23;;;;;;;2.95;1.30;;;;;;;;;;4973841;28;20023;-73
2022/04/16 09:11:49;;;;;;;3.03;1.27;;;;;;;;;;4971831;28;20035;-74
2022/04/16 09:14:15;;;;;;;5.78;1.38;;;;;;;;;;4971538;28;20511;-74
2022/04/16 09:16:43;;;;;;;4.30;1.58;;;;;;;;;;4971614;28;20027;-74
2022/04/16 09:19:13;;;;;;;4.72;1.45;;;;;;;;;;4972501;28;20054;-74
2022/04/16 09:21:41;;;;;;;2.85;1.40;;;;;;;;;;4975747;28;20022;-74
2022/04/16 09:24:08;;;;;;;2.20;1.40;;;;;;;;;;4972126;28;20506;-74
2022/04/16 09:26:35;;;;;;;2.22;1.38;;;;;;;;;;4971068;28;20023;-74
2022/04/16 09:29:08;;;;;;;4.95;1.30;;;;;;;;;;4971385;28;20057;-74
2022/04/16 09:31:35;;;;;;;3.55;1.27;;;;;;;;;;4971299;28;20430;-74
2022/04/16 09:34:01;;;;;;;2.65;1.40;;;;;;;;;;4972980;28;20033;-74
2022/04/16 09:36:28;;;;;;;3.28;1.30;;;;;;;;;;4973914;28;20050;-74
2022/04/16 09:39:01;;;;;;;2.00;1.20;;;;;;;;;;4971657;28;20033;-74
2022/04/16 09:41:35;;;;;;;6.38;1.63;;;;;;;;;;4970733;28;20034;-74
2022/04/16 09:44:02;;;;;;;2.75;1.30;;;;;;;;;;4970991;28;20034;-74
2022/04/16 09:46:30;;;;;;;2.13;1.17;;;;;;;;;;4971126;28;20366;-74
2022/04/16 09:49:01;;;;;;;2.40;1.35;;;;;;;;;;4973555;28;20023;-74
2022/04/16 09:51:28;;;;;;;1.77;1.30;;;;;;;;;;4973454;28;20034;-74
2022/04/16 09:53:54;;;;;;;2.42;1.20;;;;;;;;;;4971702;28;20023;-74
2022/04/16 09:56:22;;;;;;;2.13;1.20;;;;;;;;;;4970617;28;20038;-74
2022/04/16 09:58:54;;;;;;;1.80;1.00;;;;;;;;;;4970727;28;20030;-74
2022/04/16 10:01:24;;;;;;;5.22;1.55;;;;;;;;;;4971031;28;20035;-74
2022/04/16 10:03:52;;;;;;;2.20;1.20;;;;;;;;;;4974351;28;20032;-74
2022/04/16 10:06:20;;;;;;;6.05;1.20;;;;;;;;;;4972394;28;20088;-74
2022/04/16 10:08:50;;;;;;;2.85;1.40;;;;;;;;;;4974622;28;20403;-74
2022/04/16 10:11:42;;;;;;;1.23;1.10;;;;;;;;;;4970246;28;20023;-74
2022/04/16 10:14:08;;;;;;;2.85;1.50;;;;;;;;;;4970170;28;20439;-74
2022/04/16 10:16:41;;;;;;;1.55;1.10;;;;;;;;;;4970512;28;20027;-74
2022/04/16 10:19:17;;;;;;;2.63;1.33;;;;;;;;;;4970357;28;20396;-74
2022/04/16 10:21:43;;;;;;;3.25;1.20;;;;;;;;;;4959914;28;20027;-74
2022/04/16 10:24:10;;;;;;;1.63;1.30;;;;;;;;;;4973636;28;20030;-74
2022/04/16 10:26:43;;;;;;;5.45;1.30;;;;;;;;;;4970567;28;20023;-74
2022/04/16 10:29:09;;;;;;;1.20;1.10;;;;;;;;;;4970139;28;20043;-73
2022/04/16 10:31:48;;;;;;;4.05;1.30;;;;;;;;;;4970501;28;20027;-74
2022/04/16 10:34:16;;;;;;;2.17;1.27;;;;;;;;;;4970238;28;20029;-74
2022/04/16 10:36:52;;;;;;;4.53;1.38;;;;;;;;;;4959183;28;20043;-74
2022/04/16 10:39:19;;;;;;;2.33;1.00;;;;;;;;;;4971587;28;20023;-75
2022/04/16 10:41:55;;;;;;;4.30;1.25;;;;;;;;;;4974040;28;20035;-74
2022/04/16 10:44:22;;;;;;;2.35;1.33;;;;;;;;;;4970028;28;20488;-74
2022/04/16 10:46:49;;;;;;;4.05;1.33;;;;;;;;;;4970164;28;20385;-74
2022/04/16 10:49:17;;;;;;;3.83;1.35;;;;;;;;;;4970015;28;20031;-74
2022/04/16 10:51:44;;;;;;;2.38;1.40;;;;;;;;;;4974276;28;20030;-74
2022/04/16 10:54:14;;;;;;;1.30;1.20;;;;;;;;;;4970430;28;20023;-74
2022/04/16 10:56:53;;;;;;;2.45;1.30;;;;;;;;;;4969738;28;20415;-74
2022/04/16 10:59:19;;;;;;;2.67;1.38;;;;;;;;;;4969782;28;20019;-74
2022/04/16 11:01:55;;;;;;;2.60;1.30;;;;;;;;;;4969702;28;20037;-74
2022/04/16 11:04:21;;;;;;;2.50;1.30;;;;;;;;;;4969118;28;20029;-74
2022/04/16 11:06:51;;;;;;;2.60;1.20;;;;;;;;;;4973351;28;20023;-74
2022/04/16 11:09:18;;;;;;;3.72;1.08;;;;;;;;;;4970887;28;20034;-74
2022/04/16 11:11:49;;;;;;;1.77;1.10;;;;;;;;;;4973539;28;20034;-74
2022/04/16 11:14:16;;;;;;;1.80;1.20;;;;;;;;;;4969709;28;20031;-74
2022/04/16 11:16:44;;;;;;;1.10;1.00;;;;;;;;;;4969370;28;20503;-74
2022/04/16 11:19:17;;;;;;;5.40;1.30;;;;;;;;;;4969977;28;20408;-74
2022/04/16 11:21:44;;;;;;;2.95;0.98;;;;;;;;;;4958668;28;20484;-74
2022/04/16 11:24:10;;;;;;;3.90;1.20;;;;;;;;;;4970043;28;20034;-74
2022/04/16 11:34:53;;;;;;;1.52;1.05;;;;;;;;;;4969202;28;20038;-75
2022/04/16 11:37:20;;;;;;;3.78;1.17;;;;;;;;;;4968699;28;20019;-74
2022/04/16 11:39:48;;;;;;;1.42;1.00;;;;;;;;;;4973115;28;20033;-74
2022/04/16 11:42:15;;;;;;;1.25;1.00;;;;;;;;;;4972686;28;20034;-74
2022/04/16 11:44:41;;;;;;;2.92;1.02;;;;;;;;;;4969158;28;20037;-74
2022/04/16 11:47:18;;;;;;;4.68;1.02;;;;;;;;;;4968883;28;20031;-74
2022/04/16 11:49:49;;;;;;;3.80;1.20;;;;;;;;;;4968842;28;20504;-74
2022/04/16 11:52:15;;;;;;;2.05;1.10;;;;;;;;;;4968531;28;20035;-74
2022/04/16 11:54:43;;;;;;;2.35;1.17;;;;;;;;;;4957671;28;20035;-73
2022/04/16 11:57:19;;;;;;;5.28;1.10;;;;;;;;;;4969428;28;20027;-74
2022/04/16 11:59:55;;;;;;;3.78;1.38;;;;;;;;;;4972636;28;20081;-74
2022/04/16 12:02:21;;;;;;;1.27;0.98;;;;;;;;;;4968749;28;20031;-74
2022/04/16 12:04:48;;;;;;;1.20;1.10;;;;;;;;;;4968492;28;20025;-74
2022/04/16 12:07:16;;;;;;;3.33;1.38;;;;;;;;;;4968650;28;20031;-74
2022/04/16 12:09:46;;;;;;;6.90;1.30;;;;;;;;;;4973124;28;20463;-74
2022/04/16 12:12:16;;;;;;;2.90;1.27;;;;;;;;;;4969506;28;20027;-73
2022/04/16 12:14:46;;;;;;;1.88;1.10;;;;;;;;;;4967747;28;20033;-74
2022/04/16 12:17:20;;;;;;;6.78;1.20;;;;;;;;;;4968417;28;20029;-74
2022/04/16 12:19:47;;;;;;;1.70;1.42;;;;;;;;;;4968516;28;20399;-74
2022/04/16 12:22:17;;;;;;;2.22;1.20;;;;;;;;;;4968738;28;20023;-74
2022/04/16 12:24:43;;;;;;;1.95;1.17;;;;;;;;;;4957672;28;20025;-74
2022/04/16 12:27:10;;;;;;;5.28;1.30;;;;;;;;;;4969303;28;20037;-74
2022/04/16 12:29:36;;;;;;;2.10;1.20;;;;;;;;;;4968056;28;20512;-74
2022/04/16 12:32:02;;;;;;;1.83;1.23;;;;;;;;;;4968296;28;20546;-73
2022/04/16 12:34:29;;;;;;;6.72;1.50;;;;;;;;;;4967907;28;20024;-73
2022/04/16 12:36:55;;;;;;;2.53;1.10;;;;;;;;;;4971084;28;20450;-73
2022/04/16 12:39:23;;;;;;;3.00;1.48;;;;;;;;;;4970010;28;20023;-73
2022/04/16 12:41:50;;;;;;;1.50;1.13;;;;;;;;;;4968513;28;20119;-73
2022/04/16 12:44:16;;;;;;;3.03;1.40;;;;;;;;;;4968418;28;20021;-73
2022/04/16 12:46:43;;;;;;;6.65;1.60;;;;;;;;;;4968201;28;20030;-73
2022/04/16 12:49:09;;;;;;;9.55;3.00;;;;;;;;;;4968928;28;20027;-73
2022/04/16 12:51:35;;;;;;;5.65;1.25;;;;;;;;;;4971691;28;20019;-73
2022/04/16 12:54:02;;;;;;;1.85;1.08;;;;;;;;;;4968678;28;20030;-73
2022/04/16 12:56:28;;;;;;;2.30;1.20;;;;;;;;;;4968114;28;20107;-73
2022/04/16 12:58:54;;;;;;;3.72;1.05;;;;;;;;;;4968090;28;20476;-73
2022/04/16 13:01:21;;;;;;;3.40;1.17;;;;;;;;;;4967957;28;20078;-73
2022/04/16 13:03:47;;;;;;;5.88;1.65;;;;;;;;;;4971841;28;20026;-73
2022/04/16 13:06:13;;;;;;;3.45;1.33;;;;;;;;;;4968846;28;20025;-73
2022/04/16 13:08:40;;;;;;;1.88;1.27;;;;;;;;;;4972238;28;20538;-73
2022/04/16 13:11:08;;;;;;;2.67;1.38;;;;;;;;;;4968041;28;20030;-73
2022/04/16 13:13:36;;;;;;;2.38;1.10;;;;;;;;;;4967820;28;20031;-73
2022/04/16 13:16:02;;;;;;;2.55;1.23;;;;;;;;;;4969776;28;20574;-73
2022/04/16 13:18:29;;;;;;;5.63;1.33;;;;;;;;;;4970235;28;20530;-75
2022/04/16 13:20:55;;;;;;;2.40;1.30;;;;;;;;;;4968368;28;20035;-75
2022/04/16 13:23:21;;;;;;;3.55;1.02;;;;;;;;;;4967706;28;20027;-75
2022/04/16 13:25:48;;;;;;;1.60;1.30;;;;;;;;;;4968250;28;20035;-75
2022/04/16 13:28:14;;;;;;;1.60;1.20;;;;;;;;;;4971781;28;20362;-75
2022/04/16 13:30:41;;;;;;;2.72;1.40;;;;;;;;;;4975612;28;20033;-76
2022/04/16 13:33:08;;;;;;;3.88;1.52;;;;;;;;;;4971563;28;20026;-75
2022/04/16 13:35:34;;;;;;;3.42;1.67;;;;;;;;;;4971348;28;20507;-75
2022/04/16 13:38:00;;;;;;;2.42;1.33;;;;;;;;;;4971131;28;20022;-75
2022/04/16 13:43:12;;;;;;;10.57;1.50;;;;;;;;;;4971610;28;20031;-75
2022/04/16 13:45:38;;;;;;;2.83;1.40;;;;;;;;;;4975153;28;20019;-75
2022/04/16 13:48:05;;;;;;;7.32;1.50;;;;;;;;;;4971141;28;20027;-75
2022/04/16 13:50:32;;;;;;;6.22;1.52;;;;;;;;;;4958007;28;20029;-75
2022/04/16 13:52:58;;;;;;;2.67;1.50;;;;;;;;;;4970976;28;20033;-75
2022/04/16 13:55:24;;;;;;;4.82;1.38;;;;;;;;;;4970729;28;20391;-75
2022/04/16 13:57:51;;;;;;;3.25;1.40;;;;;;;;;;4974368;28;20027;-75
2022/04/16 14:00:17;;;;;;;4.88;1.50;;;;;;;;;;4972468;28;20030;-75
2022/04/16 14:02:44;;;;;;;4.30;1.52;;;;;;;;;;4971097;28;20026;-75
2022/04/16 14:07:55;;;;;;;2.63;1.30;;;;;;;;;;4970714;28;20022;-75
2022/04/16 14:10:21;;;;;;;3.00;1.20;;;;;;;;;;4970671;28;20035;-75
2022/04/16 14:12:48;;;;;;;2.30;1.30;;;;;;;;;;4974619;28;20023;-75
2022/04/16 14:15:14;;;;;;;4.32;1.08;;;;;;;;;;4974002;28;20408;-75
2022/04/16 14:17:41;;;;;;;2.85;1.40;;;;;;;;;;4970801;28;20100;-75
2022/04/16 14:20:08;;;;;;;2.80;1.20;;;;;;;;;;4970457;28;20381;-75
2022/04/16 14:22:34;;;;;;;2.97;1.30;;;;;;;;;;4970464;28;20031;-75
2022/04/16 14:25:01;;;;;;;1.42;1.30;;;;;;;;;;4972523;28;20023;-75
2022/04/16 14:27:27;;;;;;;2.03;1.40;;;;;;;;;;4972988;28;20045;-75
2022/04/16 14:29:54;;;;;;;6.15;1.40;;;;;;;;;;4970814;28;20508;-75
2022/04/16 14:32:20;;;;;;;1.83;1.20;;;;;;;;;;4970289;28;20031;-75
2022/04/16 14:34:46;;;;;;;2.80;1.30;;;;;;;;;;4970372;28;20037;-75
2022/04/16 14:37:13;;;;;;;2.47;1.20;;;;;;;;;;4970010;28;20392;-75
2022/04/16 14:39:39;;;;;;;2.95;1.27;;;;;;;;;;4973778;28;20035;-75
2022/04/16 14:42:06;;;;;;;2.00;1.10;;;;;;;;;;4970858;28;20041;-75
2022/04/16 14:44:34;;;;;;;5.82;1.10;;;;;;;;;;4969959;28;20023;-75
2022/04/16 14:47:01;;;;;;;2.72;1.40;;;;;;;;;;4969742;28;20042;-75
2022/04/16 14:49:27;;;;;;;3.67;1.20;;;;;;;;;;4971100;28;20053;-75
2022/04/16 14:51:57;;;;;;;2.45;1.30;;;;;;;;;;4972816;28;20414;-75
2022/04/16 14:54:23;;;;;;;4.20;1.60;;;;;;;;;;4972309;28;20023;-75
2022/04/16 14:56:50;;;;;;;2.15;1.40;;;;;;;;;;4970085;28;20054;-75
2022/04/16 14:59:16;;;;;;;4.90;1.35;;;;;;;;;;4966362;28;20026;-75
2022/04/16 15:01:43;;;;;;;1.60;1.20;;;;;;;;;;4969741;28;20030;-75
2022/04/16 15:04:09;;;;;;;3.17;1.30;;;;;;;;;;4970615;28;20477;-75
2022/04/16 15:06:35;;;;;;;3.80;1.23;;;;;;;;;;4973243;28;20015;-75
2022/04/16 15:09:02;;;;;;;1.55;1.33;;;;;;;;;;4970500;28;20030;-75
2022/04/16 15:11:28;;;;;;;1.95;1.20;;;;;;;;;;4969523;28;20399;-75
2022/04/16 15:13:54;;;;;;;3.20;0.95;;;;;;;;;;4969015;28;20029;-75